Coloma, MI

6:41 AM EDT on July 31, 2016 (GMT -0400)
| | Change Station

Elev -9999 ft 0.00 °N, 0.00 °E | Updated

Partly Cloudy
Partly Cloudy
68 °F
Feels Like 68 °F
N
3
Wind Variable Wind from NE
Gusts mph

Today
High -- | Low -- °F
--% Chance of Precip.
Yesterday
High -- | Low -- °F
Precip. -- in
Pressure 30.00 in
Visibility 6.0 miles
Clouds Overcast 1200 ft
Dew Point 64 °F
Humidity 89%
Rainfall --
Snow Depth Not available.
6:37 AM 9:04 PM
Waning Crescent, 7% visible
METAR KBEH 310953Z AUTO 00000KT 6SM BR OVC012 19/17 A3000 RMK AO2 SLP157 T01890172 $
Pressure 30.00 in
Visibility 6.0 miles
Clouds Overcast 1200 ft
Dew Point 64 °F
Humidity 89%
Rainfall --
Snow Depth Not available.
6:37 AM 9:04 PM
Waning Crescent, 7% visible
METAR KBEH 310953Z AUTO 00000KT 6SM BR OVC012 19/17 A3000 RMK AO2 SLP157 T01890172 $

10-Day Weather Forecast

Almanac

Astronomy

Jul. 31, 2016 Rise Set
Actual Time
Civil Twilight
Nautical Twilight
Astronomical Twilight
Moon
Length of Visible Light
Length of Day
Tomorrow will be .
, % of the Moon is Illuminated

Today's Extremes

State Highs State Lows

Community

WunderPhotos

Upload Photos

1,928,785 photos uploaded!

WunderBlog® & News

Nearby

Air Quality

  Air Quality AQ Index Pollutant
Not available.

Snow Depth

Station Depth Elevation

Earthquake Activity

City Distance Mag. Time & Date
Minimum magnitude displayed is 2.5.

Coastal Water Temperatures

Place Temperature

Stations

Nearby Weather Stations

Station Location Temp. Windchill Dew Point Humidity Wind Precip. Elev Updated Type
                   

Watches & Warnings

There are currently no watches in effect.